createdAt,value
2018-07-31T00:01:56.989Z,101338.27
2018-07-31T00:05:01.440Z,101333.08
2018-07-31T00:08:06.065Z,101329.13
2018-07-31T00:11:10.367Z,101327.86
2018-07-31T00:14:15.020Z,101315.93
2018-07-31T00:17:19.275Z,101322.56
2018-07-31T00:20:23.601Z,101315.93
2018-07-31T00:23:30.246Z,101316.42
2018-07-31T00:26:34.869Z,101314.69
2018-07-31T00:29:39.605Z,101306.73
2018-07-31T00:32:44.122Z,101306.88
2018-07-31T00:35:48.548Z,101303.44
2018-07-31T00:38:52.864Z,101303.91
2018-07-31T00:41:57.321Z,101304.39
2018-07-31T00:45:01.421Z,101304.50
2018-07-31T00:48:06.041Z,101311.77
2018-07-31T00:51:10.404Z,101307.47
2018-07-31T00:54:14.848Z,101299.62
2018-07-31T00:57:19.229Z,101301.43
2018-07-31T01:00:23.561Z,101290.47
2018-07-31T01:03:27.858Z,101288.75
2018-07-31T01:06:37.190Z,101280.87
2018-07-31T01:09:41.550Z,101281.39
2018-07-31T01:12:45.869Z,101279.25
2018-07-31T01:15:50.155Z,101278.36
2018-07-31T01:18:54.492Z,101276.61
2018-07-31T01:21:58.670Z,101272.66
2018-07-31T01:25:03.116Z,101272.66
2018-07-31T01:28:07.642Z,101269.16
2018-07-31T01:31:12.014Z,101269.98
2018-07-31T01:35:03.026Z,101264.60
2018-07-31T01:38:07.407Z,101262.03
2018-07-31T01:41:11.852Z,101264.17
2018-07-31T01:44:16.187Z,101266.03
2018-07-31T01:47:20.596Z,101262.64
2018-07-31T01:50:26.184Z,101251.19
2018-07-31T01:53:30.559Z,101255.22
2018-07-31T01:56:34.972Z,101252.75
2018-07-31T01:59:39.331Z,101246.73
2018-07-31T02:02:45.173Z,101244.64
2018-07-31T02:05:49.579Z,101244.77
2018-07-31T02:08:54.127Z,101244.89
2018-07-31T02:11:59.476Z,101242.41
2018-07-31T02:15:04.525Z,101236.77
2018-07-31T02:18:09.148Z,101243.02
2018-07-31T02:21:14.736Z,101241.23
2018-07-31T02:24:19.340Z,101246.45
2018-07-31T02:27:24.126Z,101233.22
2018-07-31T02:30:28.676Z,101232.81
2018-07-31T02:33:35.103Z,101237.27
2018-07-31T02:36:39.650Z,101231.56
2018-07-31T02:39:44.124Z,101227.59
2018-07-31T02:42:48.557Z,101221.00
2018-07-31T02:45:53.156Z,101222.80
2018-07-31T02:48:57.610Z,101222.48
2018-07-31T02:52:02.476Z,101226.00
2018-07-31T02:55:08.804Z,101226.46
2018-07-31T02:58:13.983Z,101219.63
2018-07-31T03:01:18.429Z,101224.23
2018-07-31T03:04:22.814Z,101219.06
2018-07-31T03:07:27.441Z,101221.82
2018-07-31T03:10:31.869Z,101214.91
2018-07-31T03:13:36.352Z,101219.77
2018-07-31T03:16:43.780Z,101217.46
2018-07-31T03:19:48.242Z,101214.25
2018-07-31T03:22:55.178Z,101209.83
2018-07-31T03:25:59.905Z,101211.15
2018-07-31T03:29:04.741Z,101207.50
2018-07-31T03:32:10.665Z,101210.82
2018-07-31T03:35:15.499Z,101209.59
2018-07-31T03:38:25.519Z,101213.08
2018-07-31T03:41:31.915Z,101213.17
2018-07-31T03:44:36.565Z,101209.20
2018-07-31T03:47:42.066Z,101217.20
2018-07-31T03:50:46.781Z,101218.22
2018-07-31T03:53:51.507Z,101220.09
2018-07-31T03:56:56.829Z,101226.17
2018-07-31T04:00:01.254Z,101222.05
2018-07-31T04:03:07.069Z,101213.63
2018-07-31T04:06:11.267Z,101214.42
2018-07-31T04:09:15.821Z,101210.84
2018-07-31T04:12:20.569Z,101212.23
2018-07-31T04:15:25.256Z,101209.19
2018-07-31T04:18:29.609Z,101206.86
2018-07-31T04:21:34.880Z,101206.33
2018-07-31T04:24:39.732Z,101212.45
2018-07-31T04:27:44.421Z,101204.42
2018-07-31T04:30:48.732Z,101202.63
2018-07-31T04:33:53.224Z,101208.30
2018-07-31T04:36:59.362Z,101199.34
2018-07-31T04:40:03.875Z,101197.00
2018-07-31T04:43:08.648Z,101202.61
2018-07-31T04:46:13.573Z,101205.63
2018-07-31T04:49:18.110Z,101210.86
2018-07-31T04:52:22.578Z,101204.34
2018-07-31T04:55:29.424Z,101195.92
2018-07-31T04:58:33.978Z,101198.08
2018-07-31T05:01:38.527Z,101201.13
2018-07-31T05:04:42.924Z,101206.11
2018-07-31T05:07:47.424Z,101203.86
2018-07-31T05:10:54.413Z,101202.28
2018-07-31T05:14:01.978Z,101204.26
2018-07-31T05:17:06.377Z,101202.29
2018-07-31T05:20:11.570Z,101205.64
2018-07-31T05:23:16.156Z,101208.97
2018-07-31T05:26:20.785Z,101208.88
2018-07-31T05:29:25.587Z,101216.93
2018-07-31T05:32:30.393Z,101217.41
2018-07-31T05:35:36.831Z,101213.42
2018-07-31T05:38:45.061Z,101211.24
2018-07-31T05:41:49.337Z,101215.00
2018-07-31T05:44:53.701Z,101217.47
2018-07-31T05:47:57.962Z,101223.11
2018-07-31T05:51:02.222Z,101226.51
2018-07-31T05:54:06.843Z,101223.39
2018-07-31T05:57:11.281Z,101223.76
2018-07-31T06:00:15.617Z,101238.35
2018-07-31T06:03:21.398Z,101240.42
2018-07-31T06:06:25.800Z,101237.42
2018-07-31T06:09:30.729Z,101243.91
2018-07-31T06:12:36.789Z,101248.38
2018-07-31T06:15:41.218Z,101254.42
2018-07-31T06:18:45.589Z,101252.36
2018-07-31T06:21:49.972Z,101252.34
2018-07-31T06:24:54.391Z,101249.38
2018-07-31T06:27:58.651Z,101248.92
2018-07-31T06:31:02.992Z,101249.30
2018-07-31T06:34:07.323Z,101251.55
2018-07-31T06:37:11.735Z,101249.42
2018-07-31T06:40:16.035Z,101237.37
2018-07-31T06:43:20.306Z,101235.62
2018-07-31T06:46:24.564Z,101239.52
2018-07-31T06:49:28.944Z,101245.23
2018-07-31T06:52:33.359Z,101246.22
2018-07-31T06:55:37.769Z,101247.27
2018-07-31T06:58:42.228Z,101246.00
2018-07-31T07:01:46.602Z,101243.00
2018-07-31T07:04:51.118Z,101250.20
2018-07-31T07:07:55.469Z,101243.56
2018-07-31T07:10:59.797Z,101240.48
2018-07-31T07:14:04.108Z,101235.40
2018-07-31T07:17:08.485Z,101233.40
2018-07-31T07:20:12.852Z,101237.13
2018-07-31T07:23:29.014Z,101240.06
2018-07-31T07:26:34.380Z,101233.92
2018-07-31T07:29:38.712Z,101224.83
2018-07-31T07:32:45.438Z,101228.58
2018-07-31T07:35:50.282Z,101225.76
2018-07-31T07:38:54.687Z,101222.95
2018-07-31T07:41:59.094Z,101215.30
2018-07-31T07:45:03.588Z,101219.63
2018-07-31T07:48:07.977Z,101222.30
2018-07-31T07:51:12.444Z,101220.97
2018-07-31T07:54:16.962Z,101221.77
2018-07-31T07:57:22.316Z,101219.97
2018-07-31T08:00:26.608Z,101215.50
2018-07-31T08:03:31.475Z,101215.63
2018-07-31T08:06:35.833Z,101213.78
2018-07-31T08:09:40.418Z,101212.73
2018-07-31T08:12:45.621Z,101204.44
2018-07-31T08:15:49.915Z,101203.11
2018-07-31T08:18:54.238Z,101200.58
2018-07-31T08:21:58.509Z,101202.44
2018-07-31T08:25:02.931Z,101210.30
2018-07-31T08:28:07.220Z,101204.97
2018-07-31T08:31:11.515Z,101199.09
2018-07-31T08:34:15.771Z,101204.49
2018-07-31T08:37:20.237Z,101207.49
2018-07-31T08:40:25.152Z,101206.05
2018-07-31T08:43:29.445Z,101203.72
2018-07-31T08:46:33.758Z,101206.16
2018-07-31T08:49:38.322Z,101204.45
2018-07-31T08:52:42.838Z,101198.94
2018-07-31T08:55:49.000Z,101205.52
2018-07-31T08:58:53.377Z,101207.77
2018-07-31T09:01:58.122Z,101208.39
2018-07-31T09:05:02.415Z,101207.86
2018-07-31T09:08:06.811Z,101216.11
2018-07-31T09:11:11.819Z,101216.80
2018-07-31T09:14:16.162Z,101213.97
2018-07-31T09:17:20.495Z,101206.81
2018-07-31T09:20:24.821Z,101205.54
2018-07-31T09:23:29.455Z,101211.48
2018-07-31T09:26:33.942Z,101204.61
2018-07-31T09:29:38.324Z,101209.46
2018-07-31T09:32:48.470Z,101213.19
2018-07-31T09:35:53.043Z,101208.80
2018-07-31T09:38:57.555Z,101199.40
2018-07-31T09:42:02.285Z,101200.09
2018-07-31T09:45:07.026Z,101196.86
2018-07-31T09:48:11.623Z,101194.13
2018-07-31T09:51:15.906Z,101200.81
2018-07-31T09:54:20.389Z,101198.53
2018-07-31T09:57:24.705Z,101195.54
2018-07-31T10:00:34.371Z,101197.17
2018-07-31T10:03:38.602Z,101199.19
2018-07-31T10:06:43.549Z,101199.41
2018-07-31T10:09:48.419Z,101196.78
2018-07-31T10:12:59.817Z,101193.80
2018-07-31T10:16:04.306Z,101193.97
2018-07-31T10:19:09.451Z,101194.42
2018-07-31T10:22:13.932Z,101198.36
2018-07-31T10:25:18.545Z,101205.42
2018-07-31T10:28:22.904Z,101201.67
2018-07-31T10:31:27.224Z,101200.33
2018-07-31T10:34:31.554Z,101198.20
2018-07-31T10:37:39.744Z,101188.61
2018-07-31T10:40:44.301Z,101190.91
2018-07-31T10:43:52.762Z,101189.70
2018-07-31T10:46:57.138Z,101183.35
2018-07-31T10:50:04.693Z,101182.94
2018-07-31T10:53:18.269Z,101177.82
2018-07-31T10:56:22.571Z,101187.91
2018-07-31T10:59:26.988Z,101186.64
2018-07-31T11:08:02.570Z,101188.86
2018-07-31T11:14:37.929Z,101189.10
2018-07-31T11:17:42.385Z,101177.92
2018-07-31T11:20:47.100Z,101181.60
2018-07-31T11:23:53.859Z,101172.03
2018-07-31T11:26:58.296Z,101163.75
2018-07-31T11:30:46.433Z,101166.97
2018-07-31T11:33:51.309Z,101165.57
2018-07-31T11:36:56.189Z,101158.09
2018-07-31T11:40:00.635Z,101148.97
2018-07-31T11:43:05.171Z,101153.67
2018-07-31T11:46:09.598Z,101160.04
2018-07-31T11:49:13.905Z,101159.34
2018-07-31T11:52:18.526Z,101171.95
2018-07-31T11:55:23.465Z,101175.87
2018-07-31T11:58:27.854Z,101180.98
2018-07-31T12:01:34.384Z,101182.44
2018-07-31T12:04:39.162Z,101186.27
2018-07-31T12:07:45.203Z,101189.09
2018-07-31T12:10:49.687Z,101175.12
2018-07-31T12:13:56.382Z,101174.72
2018-07-31T12:17:03.936Z,101171.84
2018-07-31T12:20:09.966Z,101170.80
2018-07-31T12:23:15.246Z,101179.63
2018-07-31T12:26:19.689Z,101184.99
2018-07-31T12:29:24.093Z,101189.17
2018-07-31T12:32:28.642Z,101181.53
2018-07-31T12:35:33.016Z,101169.59
2018-07-31T12:38:37.536Z,101167.75
2018-07-31T12:41:43.595Z,101174.08
2018-07-31T12:44:49.873Z,101168.12
2018-07-31T12:47:58.210Z,101164.69
2018-07-31T12:51:04.977Z,101167.49
2018-07-31T12:54:09.313Z,101169.77
2018-07-31T12:57:14.779Z,101170.44
2018-07-31T13:00:19.236Z,101171.31
2018-07-31T13:03:27.644Z,101171.73
2018-07-31T13:06:33.258Z,101170.94
2018-07-31T13:09:38.839Z,101165.41
2018-07-31T13:12:43.244Z,101175.17
2018-07-31T13:15:48.385Z,101172.47
2018-07-31T13:18:54.058Z,101167.78
2018-07-31T13:21:59.700Z,101170.77
2018-07-31T13:25:04.278Z,101167.52
2018-07-31T13:28:11.390Z,101172.81
2018-07-31T13:31:15.768Z,101180.59
2018-07-31T13:34:20.341Z,101180.95
2018-07-31T13:37:36.909Z,101171.84
2018-07-31T13:40:41.340Z,101175.22
2018-07-31T13:43:45.830Z,101180.39
2018-07-31T13:46:50.607Z,101179.39
2018-07-31T13:49:54.948Z,101180.13
2018-07-31T13:52:59.505Z,101177.78
2018-07-31T13:56:03.985Z,101174.81
2018-07-31T13:59:08.445Z,101178.58
2018-07-31T14:02:13.688Z,101171.52
2018-07-31T14:05:18.320Z,101162.81
2018-07-31T14:08:22.977Z,101168.34
2018-07-31T14:11:27.482Z,101165.48
2018-07-31T14:14:31.938Z,101163.73
2018-07-31T14:17:36.629Z,101159.39
2018-07-31T14:20:42.071Z,101159.03
2018-07-31T14:23:49.987Z,101160.60
2018-07-31T14:26:58.168Z,101169.70
2018-07-31T14:30:02.702Z,101180.58
2018-07-31T14:33:07.291Z,101192.39
2018-07-31T14:36:11.666Z,101193.33
2018-07-31T14:39:17.589Z,101196.86
2018-07-31T14:42:22.030Z,101202.56
2018-07-31T14:45:33.125Z,101203.35
2018-07-31T14:48:37.982Z,101208.28
2018-07-31T14:51:42.710Z,101218.19
2018-07-31T14:54:50.138Z,101219.11
2018-07-31T14:57:55.153Z,101225.92
2018-07-31T15:01:01.417Z,101227.54
2018-07-31T15:04:05.967Z,101241.98
2018-07-31T15:07:12.845Z,101250.59
2018-07-31T15:10:19.477Z,101241.21
2018-07-31T15:13:23.929Z,101250.50
2018-07-31T15:16:32.018Z,101244.92
2018-07-31T15:19:36.841Z,101249.84
2018-07-31T15:22:41.231Z,101253.70
2018-07-31T15:25:45.719Z,101243.21
2018-07-31T15:28:50.144Z,101251.39
2018-07-31T15:31:54.765Z,101251.24
2018-07-31T15:34:59.180Z,101252.57
2018-07-31T15:38:06.513Z,101257.81
2018-07-31T15:41:22.127Z,101271.08
2018-07-31T15:44:26.834Z,101274.56
2018-07-31T15:47:31.412Z,101275.94
2018-07-31T15:50:36.694Z,101283.56
2018-07-31T15:53:41.029Z,101282.80
2018-07-31T15:56:46.070Z,101305.88
2018-07-31T15:59:51.854Z,101308.61
2018-07-31T16:02:56.319Z,101316.55
2018-07-31T16:06:01.233Z,101313.38
2018-07-31T16:09:09.708Z,101313.91
2018-07-31T16:12:14.447Z,101321.77
2018-07-31T16:15:19.539Z,101324.77
2018-07-31T16:18:24.437Z,101327.38
2018-07-31T16:21:29.631Z,101334.16
2018-07-31T16:24:36.188Z,101333.33
2018-07-31T16:27:41.169Z,101334.75
2018-07-31T16:30:46.007Z,101340.26
2018-07-31T16:33:52.022Z,101336.79
2018-07-31T16:36:57.468Z,101336.87
2018-07-31T16:40:03.184Z,101340.44
2018-07-31T16:43:07.881Z,101341.77
2018-07-31T16:46:13.982Z,101347.51
2018-07-31T16:49:20.743Z,101348.14
2018-07-31T16:52:25.289Z,101350.92
2018-07-31T16:55:29.740Z,101352.59
2018-07-31T16:58:34.860Z,101345.87
2018-07-31T17:01:39.385Z,101353.88
2018-07-31T17:04:43.967Z,101361.09
2018-07-31T17:07:49.077Z,101364.73
2018-07-31T17:10:53.597Z,101365.90
2018-07-31T17:13:59.400Z,101368.87
2018-07-31T17:17:04.459Z,101367.98
2018-07-31T17:20:08.909Z,101372.93
2018-07-31T17:23:13.558Z,101374.97
2018-07-31T17:26:17.863Z,101367.74
2018-07-31T17:29:25.018Z,101386.93
2018-07-31T17:32:29.716Z,101389.30
2018-07-31T17:35:34.591Z,101388.92
2018-07-31T17:38:38.942Z,101393.30
2018-07-31T17:41:45.546Z,101401.24
2018-07-31T17:44:49.975Z,101402.29
2018-07-31T17:47:55.378Z,101407.55
2018-07-31T17:51:00.709Z,101405.12
2018-07-31T17:54:05.852Z,101409.94
2018-07-31T17:57:10.951Z,101420.52
2018-07-31T18:00:23.619Z,101419.41
2018-07-31T18:03:28.028Z,101420.06
2018-07-31T18:06:33.380Z,101420.47
2018-07-31T18:09:37.891Z,101423.60
2018-07-31T18:12:42.853Z,101426.01
2018-07-31T18:15:47.645Z,101438.95
2018-07-31T18:18:53.739Z,101433.61
2018-07-31T18:21:59.540Z,101434.01
2018-07-31T18:25:06.355Z,101433.84
2018-07-31T18:28:12.457Z,101440.84
2018-07-31T18:31:21.488Z,101434.46
2018-07-31T18:34:26.193Z,101446.45
2018-07-31T18:37:31.988Z,101453.31
2018-07-31T18:40:38.836Z,101459.36
2018-07-31T18:43:44.515Z,101464.79
2018-07-31T18:46:49.505Z,101461.76
2018-07-31T18:49:54.151Z,101466.52
2018-07-31T18:52:58.884Z,101468.91
2018-07-31T18:56:03.214Z,101476.28
2018-07-31T18:59:07.625Z,101480.41
2018-07-31T19:02:12.359Z,101492.34
2018-07-31T19:05:17.067Z,101489.80
2018-07-31T19:08:34.183Z,101489.80
2018-07-31T19:11:40.431Z,101497.07
2018-07-31T19:14:45.482Z,101501.75
2018-07-31T19:17:50.225Z,101506.43
2018-07-31T19:20:54.736Z,101509.42
2018-07-31T19:24:00.011Z,101520.52
2018-07-31T19:27:05.013Z,101525.74
2018-07-31T19:30:09.750Z,101525.44
2018-07-31T19:33:14.777Z,101530.86
2018-07-31T19:36:19.643Z,101530.62
2018-07-31T19:39:24.478Z,101531.28
2018-07-31T19:42:32.691Z,101542.05
2018-07-31T19:45:37.617Z,101539.54
2018-07-31T19:48:43.111Z,101545.87
2018-07-31T19:51:47.882Z,101551.20
2018-07-31T19:54:53.010Z,101557.91
2018-07-31T19:57:57.911Z,101560.04
2018-07-31T20:01:05.067Z,101568.06
2018-07-31T20:04:10.043Z,101570.80
2018-07-31T20:07:15.135Z,101573.50
2018-07-31T20:10:19.962Z,101565.22
2018-07-31T20:13:25.314Z,101589.16
2018-07-31T20:16:30.049Z,101578.23
2018-07-31T20:19:34.432Z,101588.43
2018-07-31T20:22:38.746Z,101596.37
2018-07-31T20:25:43.093Z,101601.28
2018-07-31T20:28:47.418Z,101599.64
2018-07-31T20:31:51.778Z,101599.26
2018-07-31T20:34:56.132Z,101592.36
2018-07-31T20:38:00.512Z,101600.44
2018-07-31T20:41:04.883Z,101606.67
2018-07-31T20:44:10.084Z,101613.75
2018-07-31T20:47:14.896Z,101616.15
2018-07-31T20:50:19.451Z,101616.15
2018-07-31T20:53:24.064Z,101610.98
2018-07-31T20:56:28.878Z,101618.06
2018-07-31T20:59:34.068Z,101614.68
2018-07-31T21:02:38.954Z,101622.33
2018-07-31T21:05:44.130Z,101625.08
2018-07-31T21:08:49.593Z,101633.58
2018-07-31T21:11:54.829Z,101637.20
2018-07-31T21:14:59.718Z,101633.80
2018-07-31T21:18:05.352Z,101636.09
2018-07-31T21:21:09.717Z,101639.24
2018-07-31T21:24:13.956Z,101641.53
2018-07-31T21:27:18.829Z,101641.67
2018-07-31T21:30:23.176Z,101637.31
2018-07-31T21:33:30.815Z,101647.05
2018-07-31T21:36:35.495Z,101647.18
2018-07-31T21:39:40.268Z,101652.09
2018-07-31T21:42:44.949Z,101659.56
2018-07-31T21:45:49.715Z,101664.84
2018-07-31T21:48:54.617Z,101664.81
2018-07-31T21:51:59.423Z,101666.63
2018-07-31T21:55:04.885Z,101680.29
2018-07-31T21:58:09.617Z,101681.23
2018-07-31T22:01:13.965Z,101687.01
2018-07-31T22:04:18.475Z,101689.23
2018-07-31T22:07:23.171Z,101689.69
2018-07-31T22:10:28.551Z,101697.19
2018-07-31T22:13:33.649Z,101690.59
2018-07-31T22:16:38.543Z,101691.88
2018-07-31T22:19:43.831Z,101695.87
2018-07-31T22:22:48.632Z,101696.33
2018-07-31T22:25:53.508Z,101699.45
2018-07-31T22:28:58.345Z,101708.73
2018-07-31T22:32:03.945Z,101717.61
2018-07-31T22:35:09.156Z,101711.94
2018-07-31T22:38:14.283Z,101703.65
2018-07-31T22:41:19.725Z,101708.51
2018-07-31T22:44:25.419Z,101713.81
2018-07-31T22:47:30.024Z,101712.94
2018-07-31T22:50:34.413Z,101709.91
2018-07-31T22:53:39.205Z,101715.67
2018-07-31T22:56:44.216Z,101729.37
2018-07-31T22:59:49.376Z,101719.69
2018-07-31T23:02:53.744Z,101710.05
2018-07-31T23:05:58.405Z,101718.36
2018-07-31T23:09:02.840Z,101726.26
2018-07-31T23:12:07.719Z,101718.37
2018-07-31T23:15:12.354Z,101724.98
2018-07-31T23:18:16.807Z,101724.58
2018-07-31T23:21:22.370Z,101730.31
2018-07-31T23:24:26.860Z,101733.39
2018-07-31T23:27:31.465Z,101728.58
2018-07-31T23:30:36.007Z,101739.53
2018-07-31T23:33:40.341Z,101736.44
2018-07-31T23:36:44.874Z,101750.06
2018-07-31T23:39:49.525Z,101743.47
2018-07-31T23:42:54.248Z,101745.20
2018-07-31T23:45:58.970Z,101730.72
2018-07-31T23:49:03.590Z,101730.32
2018-07-31T23:52:08.013Z,101734.30
2018-07-31T23:55:12.539Z,101732.16
2018-07-31T23:58:17.149Z,101735.65
